Delhi, Ontario

5:20 PM EST on February 05, 2016 (GMT -0500)
Tillsonburg | | Change Station
CLOSE
Current Station
Personal Weather Station
Location: Tillsonburg, ONTARIO
Elevation: 760 ft
Nearby Weather Stations

Elev 760 ft 42.87 °N, 80.74 °W | Updated 3 minutes ago

Mostly Cloudy
Mostly Cloudy
30.6 °F
Feels Like 31 °F
N
2.7
Wind Variable Wind from WSW

Today
High -- | Low -- °F
--% Chance of Precip.
Yesterday
High -- | Low -- °F
Precip. -- in
Pressure 30.34 in
Visibility 15.0 miles
Clouds Mostly Cloudy 2700 ft
Mostly Cloudy 7400 ft
Windchill 31 °F
Dew Point 23 °F
Humidity 73%
Rainfall 0.05 in
Snow Depth Not available.
7:33 AM 5:39 PM
Waning Crescent, 9% visible
METAR CYXU 052200Z 21010G15KT 15SM BKN027 BKN074 M01/M05 A3029 RMK CU7AC1 AC TR SLP272
Pressure 30.34 in
Visibility 15.0 miles
Clouds Mostly Cloudy 2700 ft
Mostly Cloudy 7400 ft
Windchill 31 °F
Dew Point 23 °F
Humidity 73%
Rainfall 0.05 in
Snow Depth Not available.
7:33 AM 5:39 PM
Waning Crescent, 9% visible
METAR CYXU 052200Z 21010G15KT 15SM BKN027 BKN074 M01/M05 A3029 RMK CU7AC1 AC TR SLP272

10-Day Weather Forecast

Almanac

Astronomy

Feb. 05, 2016 Rise Set
Actual Time
Civil Twilight
Nautical Twilight
Astronomical Twilight
Moon
Length of Visible Light
Length of Day
Tomorrow will be .
, % of the Moon is Illuminated

Today's Extremes

Country Highs Country Lows

Community

WunderPhotos

Upload Photos

1,890,876 photos uploaded!

WunderBlog® & News

Nearby

Air Quality

  Air Quality AQ Index Pollutant
Not available.

Snow Depth

Station Depth Elevation

Earthquake Activity

City Distance Mag. Time & Date
Minimum magnitude displayed is 2.5.

Coastal Water Temperatures

Place Temperature

Stations

Nearby Weather Stations

Station Location Temp. Windchill Dew Point Humidity Wind Precip. Elev Updated Type
                   

Watches & Warnings

There are currently no watches in effect.